sensor_id;sensor_type;location;lat;lon;timestamp;pressure;altitude;pressure_sealevel;temperature;humidity
8585;BME280;7180;52.742;11.420;2023-02-10T00:01:32;102267.41;;;-0.86;95.75
8585;BME280;7180;52.742;11.420;2023-02-10T00:03:57;102339.94;;;-0.71;96.72
8585;BME280;7180;52.742;11.420;2023-02-10T00:06:25;102404.06;;;-0.46;97.13
8585;BME280;7180;52.742;11.420;2023-02-10T00:08:53;102408.19;;;-0.57;97.55
8585;BME280;7180;52.742;11.420;2023-02-10T00:11:19;102445.56;;;-0.37;98.07
8585;BME280;7180;52.742;11.420;2023-02-10T00:13:45;102430.78;;;-0.46;97.77
8585;BME280;7180;52.742;11.420;2023-02-10T00:16:12;102435.88;;;-0.49;97.94
8585;BME280;7180;52.742;11.420;2023-02-10T00:18:38;102470.56;;;-0.36;98.77
8585;BME280;7180;52.742;11.420;2023-02-10T00:21:12;102481.00;;;-0.29;98.91
8585;BME280;7180;52.742;11.420;2023-02-10T00:23:37;102515.00;;;-0.05;99.15
8585;BME280;7180;52.742;11.420;2023-02-10T00:26:04;102513.34;;;0.00;98.96
8585;BME280;7180;52.742;11.420;2023-02-10T00:28:30;102528.25;;;0.18;99.42
8585;BME280;7180;52.742;11.420;2023-02-10T00:30:55;102519.75;;;0.25;98.93
8585;BME280;7180;52.742;11.420;2023-02-10T00:33:20;102519.03;;;0.35;99.30
8585;BME280;7180;52.742;11.420;2023-02-10T00:35:46;102526.16;;;0.51;98.98
8585;BME280;7180;52.742;11.420;2023-02-10T00:38:11;102515.03;;;0.60;99.16
8585;BME280;7180;52.742;11.420;2023-02-10T00:40:36;102503.88;;;0.65;98.81
8585;BME280;7180;52.742;11.420;2023-02-10T00:43:01;102479.81;;;0.72;98.37
8585;BME280;7180;52.742;11.420;2023-02-10T00:45:27;102480.00;;;0.87;98.44
8585;BME280;7180;52.742;11.420;2023-02-10T00:47:52;102452.47;;;0.95;98.03
8585;BME280;7180;52.742;11.420;2023-02-10T00:50:18;102403.19;;;0.92;97.55
8585;BME280;7180;52.742;11.420;2023-02-10T00:52:43;102411.13;;;1.09;97.11
8585;BME280;7180;52.742;11.420;2023-02-10T00:55:08;102360.13;;;1.03;96.70
8585;BME280;7180;52.742;11.420;2023-02-10T00:57:34;102334.28;;;1.08;96.62
8585;BME280;7180;52.742;11.420;2023-02-10T00:59:59;102307.44;;;1.01;96.13
8585;BME280;7180;52.742;11.420;2023-02-10T01:02:24;102294.50;;;1.00;96.42
8585;BME280;7180;52.742;11.420;2023-02-10T01:04:49;102306.59;;;1.01;95.94
8585;BME280;7180;52.742;11.420;2023-02-10T01:07:15;102323.09;;;1.14;96.28
8585;BME280;7180;52.742;11.420;2023-02-10T01:09:40;102334.50;;;1.35;95.87
8585;BME280;7180;52.742;11.420;2023-02-10T01:12:05;102267.06;;;1.34;95.29
8585;BME280;7180;52.742;11.420;2023-02-10T01:14:31;102204.75;;;1.08;95.23
8585;BME280;7180;52.742;11.420;2023-02-10T01:16:57;102189.13;;;0.91;95.30
8585;BME280;7180;52.742;11.420;2023-02-10T01:19:22;102158.72;;;0.63;95.00
8585;BME280;7180;52.742;11.420;2023-02-10T01:21:48;102187.91;;;0.47;95.43
8585;BME280;7180;52.742;11.420;2023-02-10T01:24:13;102212.00;;;0.34;95.93
8585;BME280;7180;52.742;11.420;2023-02-10T01:26:38;102288.72;;;0.32;96.50
8585;BME280;7180;52.742;11.420;2023-02-10T01:29:03;102320.38;;;0.10;97.05
8585;BME280;7180;52.742;11.420;2023-02-10T01:31:29;102418.88;;;0.25;97.76
8585;BME280;7180;52.742;11.420;2023-02-10T01:33:54;102474.16;;;0.33;98.50
8585;BME280;7180;52.742;11.420;2023-02-10T01:36:22;102515.41;;;0.24;99.06
8585;BME280;7180;52.742;11.420;2023-02-10T01:38:48;102568.19;;;0.34;99.30
8585;BME280;7180;52.742;11.420;2023-02-10T01:41:16;102595.06;;;0.43;99.93
8585;BME280;7180;52.742;11.420;2023-02-10T01:44:06;102615.69;;;0.39;100.00
8585;BME280;7180;52.742;11.420;2023-02-10T01:46:50;102648.66;;;0.49;100.00
8585;BME280;7180;52.742;11.420;2023-02-10T01:49:21;102642.47;;;0.42;100.00
8585;BME280;7180;52.742;11.420;2023-02-10T01:51:52;102638.03;;;0.32;100.00
8585;BME280;7180;52.742;11.420;2023-02-10T01:54:24;102662.28;;;0.40;100.00
8585;BME280;7180;52.742;11.420;2023-02-10T01:56:51;102669.22;;;0.40;100.00
8585;BME280;7180;52.742;11.420;2023-02-10T01:59:17;102690.16;;;0.56;100.00
8585;BME280;7180;52.742;11.420;2023-02-10T02:01:44;102695.34;;;0.58;100.00
8585;BME280;7180;52.742;11.420;2023-02-10T02:04:10;102699.81;;;0.66;100.00
8585;BME280;7180;52.742;11.420;2023-02-10T02:06:35;102700.75;;;0.71;100.00
8585;BME280;7180;52.742;11.420;2023-02-10T02:09:01;102691.28;;;0.72;100.00
8585;BME280;7180;52.742;11.420;2023-02-10T02:16:56;102711.66;;;1.08;100.00
8585;BME280;7180;52.742;11.420;2023-02-10T02:19:45;102706.59;;;1.17;100.00
8585;BME280;7180;52.742;11.420;2023-02-10T02:25:29;102690.28;;;1.27;100.00
8585;BME280;7180;52.742;11.420;2023-02-10T02:28:08;102669.59;;;1.28;100.00
8585;BME280;7180;52.742;11.420;2023-02-10T02:33:33;102642.94;;;1.37;100.00
8585;BME280;7180;52.742;11.420;2023-02-10T02:36:09;102632.59;;;1.40;100.00
8585;BME280;7180;52.742;11.420;2023-02-10T02:38:38;102627.47;;;1.44;100.00
8585;BME280;7180;52.742;11.420;2023-02-10T02:41:03;102613.75;;;1.56;100.00
8585;BME280;7180;52.742;11.420;2023-02-10T02:43:29;102590.38;;;1.53;100.00
8585;BME280;7180;52.742;11.420;2023-02-10T02:46:03;102568.75;;;1.48;100.00
8585;BME280;7180;52.742;11.420;2023-02-10T02:51:18;102563.47;;;1.42;100.00
8585;BME280;7180;52.742;11.420;2023-02-10T02:54:05;102577.41;;;1.50;100.00
8585;BME280;7180;52.742;11.420;2023-02-10T02:56:43;102587.00;;;1.63;100.00
8585;BME280;7180;52.742;11.420;2023-02-10T03:01:57;102557.50;;;1.50;100.00
8585;BME280;7180;52.742;11.420;2023-02-10T03:04:27;102544.44;;;1.40;100.00
8585;BME280;7180;52.742;11.420;2023-02-10T03:06:53;102553.91;;;1.35;100.00
8585;BME280;7180;52.742;11.420;2023-02-10T03:09:19;102580.75;;;1.43;100.00
8585;BME280;7180;52.742;11.420;2023-02-10T03:11:44;102592.88;;;1.44;100.00
8585;BME280;7180;52.742;11.420;2023-02-10T03:14:09;102591.13;;;1.43;100.00
8585;BME280;7180;52.742;11.420;2023-02-10T03:16:34;102590.19;;;1.33;100.00
8585;BME280;7180;52.742;11.420;2023-02-10T03:19:00;102594.47;;;1.28;100.00
8585;BME280;7180;52.742;11.420;2023-02-10T03:21:25;102596.09;;;1.22;100.00
8585;BME280;7180;52.742;11.420;2023-02-10T03:23:51;102594.19;;;1.08;100.00
8585;BME280;7180;52.742;11.420;2023-02-10T03:26:16;102590.47;;;0.87;100.00
8585;BME280;7180;52.742;11.420;2023-02-10T03:28:41;102602.50;;;0.80;100.00
8585;BME280;7180;52.742;11.420;2023-02-10T03:31:07;102632.75;;;0.84;100.00
8585;BME280;7180;52.742;11.420;2023-02-10T03:33:33;102642.09;;;0.73;100.00
8585;BME280;7180;52.742;11.420;2023-02-10T03:35:59;102659.28;;;0.68;100.00
8585;BME280;7180;52.742;11.420;2023-02-10T03:38:25;102699.84;;;0.68;100.00
8585;BME280;7180;52.742;11.420;2023-02-10T03:40:51;102714.44;;;0.63;100.00
8585;BME280;7180;52.742;11.420;2023-02-10T03:43:17;102721.28;;;0.59;100.00
8585;BME280;7180;52.742;11.420;2023-02-10T03:45:43;102744.59;;;0.59;100.00
8585;BME280;7180;52.742;11.420;2023-02-10T03:48:08;102749.00;;;0.65;100.00
8585;BME280;7180;52.742;11.420;2023-02-10T03:50:34;102767.22;;;0.72;100.00
8585;BME280;7180;52.742;11.420;2023-02-10T03:52:59;102767.97;;;0.65;100.00
8585;BME280;7180;52.742;11.420;2023-02-10T03:55:25;102774.16;;;0.73;100.00
8585;BME280;7180;52.742;11.420;2023-02-10T03:57:50;102763.63;;;0.63;100.00
8585;BME280;7180;52.742;11.420;2023-02-10T04:00:15;102763.53;;;0.58;100.00
8585;BME280;7180;52.742;11.420;2023-02-10T04:02:41;102781.78;;;0.64;100.00
8585;BME280;7180;52.742;11.420;2023-02-10T04:05:06;102785.44;;;0.77;100.00
8585;BME280;7180;52.742;11.420;2023-02-10T04:07:32;102784.53;;;0.75;100.00
8585;BME280;7180;52.742;11.420;2023-02-10T04:09:57;102777.19;;;0.50;100.00
8585;BME280;7180;52.742;11.420;2023-02-10T04:12:22;102792.00;;;0.58;100.00
8585;BME280;7180;52.742;11.420;2023-02-10T04:14:48;102796.44;;;0.65;100.00
8585;BME280;7180;52.742;11.420;2023-02-10T04:17:13;102801.72;;;0.70;100.00
8585;BME280;7180;52.742;11.420;2023-02-10T04:19:38;102805.09;;;0.66;100.00
8585;BME280;7180;52.742;11.420;2023-02-10T04:22:04;102825.22;;;0.83;100.00
8585;BME280;7180;52.742;11.420;2023-02-10T04:24:29;102814.03;;;0.83;100.00
8585;BME280;7180;52.742;11.420;2023-02-10T04:26:54;102823.78;;;0.99;100.00
8585;BME280;7180;52.742;11.420;2023-02-10T04:29:21;102810.88;;;1.03;100.00
8585;BME280;7180;52.742;11.420;2023-02-10T04:31:47;102810.00;;;1.01;100.00
8585;BME280;7180;52.742;11.420;2023-02-10T04:34:12;102817.06;;;1.12;100.00
8585;BME280;7180;52.742;11.420;2023-02-10T04:36:37;102811.03;;;1.13;100.00
8585;BME280;7180;52.742;11.420;2023-02-10T04:39:03;102810.13;;;1.11;100.00
8585;BME280;7180;52.742;11.420;2023-02-10T04:41:28;102810.25;;;1.17;100.00
8585;BME280;7180;52.742;11.420;2023-02-10T04:43:53;102802.31;;;1.08;100.00
8585;BME280;7180;52.742;11.420;2023-02-10T04:46:18;102794.56;;;1.08;100.00
8585;BME280;7180;52.742;11.420;2023-02-10T04:48:44;102793.69;;;1.08;100.00
8585;BME280;7180;52.742;11.420;2023-02-10T04:51:10;102807.66;;;1.18;100.00
8585;BME280;7180;52.742;11.420;2023-02-10T04:53:37;102803.34;;;1.19;100.00
8585;BME280;7180;52.742;11.420;2023-02-10T04:56:02;102790.16;;;1.02;100.00
8585;BME280;7180;52.742;11.420;2023-02-10T04:58:29;102784.06;;;0.98;100.00
8585;BME280;7180;52.742;11.420;2023-02-10T05:00:55;102799.72;;;1.08;100.00
8585;BME280;7180;52.742;11.420;2023-02-10T05:03:21;102803.97;;;1.02;100.00
8585;BME280;7180;52.742;11.420;2023-02-10T05:05:46;102798.69;;;0.95;100.00
8585;BME280;7180;52.742;11.420;2023-02-10T05:08:11;102803.13;;;1.03;100.00
8585;BME280;7180;52.742;11.420;2023-02-10T05:10:36;102801.31;;;0.99;100.00
8585;BME280;7180;52.742;11.420;2023-02-10T05:13:02;102813.72;;;1.19;100.00
8585;BME280;7180;52.742;11.420;2023-02-10T05:15:27;102819.97;;;1.31;100.00
8585;BME280;7180;52.742;11.420;2023-02-10T05:17:52;102812.84;;;1.18;100.00
8585;BME280;7180;52.742;11.420;2023-02-10T05:20:18;102806.75;;;1.15;100.00
8585;BME280;7180;52.742;11.420;2023-02-10T05:22:43;102818.94;;;1.20;100.00
8585;BME280;7180;52.742;11.420;2023-02-10T05:25:08;102813.75;;;1.22;100.00
8585;BME280;7180;52.742;11.420;2023-02-10T05:27:34;102815.66;;;1.32;100.00
8585;BME280;7180;52.742;11.420;2023-02-10T05:30:00;102809.47;;;1.24;100.00
8585;BME280;7180;52.742;11.420;2023-02-10T05:32:25;102823.34;;;1.27;100.00
8585;BME280;7180;52.742;11.420;2023-02-10T05:34:51;102817.22;;;1.21;100.00
8585;BME280;7180;52.742;11.420;2023-02-10T05:37:16;102808.41;;;1.10;100.00
8585;BME280;7180;52.742;11.420;2023-02-10T05:39:41;102820.78;;;1.30;100.00
8585;BME280;7180;52.742;11.420;2023-02-10T05:42:06;102820.91;;;1.38;100.00
8585;BME280;7180;52.742;11.420;2023-02-10T05:44:32;102814.75;;;1.28;100.00
8585;BME280;7180;52.742;11.420;2023-02-10T05:46:58;102820.72;;;1.23;100.00
8585;BME280;7180;52.742;11.420;2023-02-10T05:49:23;102818.00;;;1.15;100.00
8585;BME280;7180;52.742;11.420;2023-02-10T05:51:48;102817.00;;;1.08;100.00
8585;BME280;7180;52.742;11.420;2023-02-10T05:54:14;102822.25;;;1.12;100.00
8585;BME280;7180;52.742;11.420;2023-02-10T05:56:39;102815.13;;;0.97;100.00
8585;BME280;7180;52.742;11.420;2023-02-10T05:59:05;102817.72;;;0.98;100.00
8585;BME280;7180;52.742;11.420;2023-02-10T06:01:31;102812.38;;;0.88;100.00
8585;BME280;7180;52.742;11.420;2023-02-10T06:03:56;102838.56;;;1.04;100.00
8585;BME280;7180;52.742;11.420;2023-02-10T06:06:22;102843.47;;;0.88;100.00
8585;BME280;7180;52.742;11.420;2023-02-10T06:08:47;102835.75;;;0.92;100.00
8585;BME280;7180;52.742;11.420;2023-02-10T06:11:12;102827.81;;;0.82;100.00
8585;BME280;7180;52.742;11.420;2023-02-10T06:13:38;102845.94;;;0.82;100.00
8585;BME280;7180;52.742;11.420;2023-02-10T06:16:03;102865.06;;;0.88;100.00
8585;BME280;7180;52.742;11.420;2023-02-10T06:18:30;102870.28;;;0.91;100.00
8585;BME280;7180;52.742;11.420;2023-02-10T06:20:55;102861.50;;;0.83;100.00
8585;BME280;7180;52.742;11.420;2023-02-10T06:23:21;102856.88;;;0.66;100.00
8585;BME280;7180;52.742;11.420;2023-02-10T06:25:47;102870.88;;;0.75;100.00
8585;BME280;7180;52.742;11.420;2023-02-10T06:28:12;102872.34;;;0.61;100.00
8585;BME280;7180;52.742;11.420;2023-02-10T06:30:40;102869.31;;;0.40;100.00
8585;BME280;7180;52.742;11.420;2023-02-10T06:33:05;102874.59;;;0.43;100.00
8585;BME280;7180;52.742;11.420;2023-02-10T06:35:30;102892.91;;;0.54;100.00
8585;BME280;7180;52.742;11.420;2023-02-10T06:37:55;102886.97;;;0.59;100.00
8585;BME280;7180;52.742;11.420;2023-02-10T06:40:21;102878.78;;;0.38;100.00
8585;BME280;7180;52.742;11.420;2023-02-10T06:42:47;102887.66;;;0.51;100.00
8585;BME280;7180;52.742;11.420;2023-02-10T06:45:12;102906.03;;;0.64;100.00
8585;BME280;7180;52.742;11.420;2023-02-10T06:47:38;102913.03;;;0.68;100.00
8585;BME280;7180;52.742;11.420;2023-02-10T06:50:03;102919.31;;;0.81;100.00
8585;BME280;7180;52.742;11.420;2023-02-10T06:52:29;102920.28;;;0.87;100.00
8585;BME280;7180;52.742;11.420;2023-02-10T06:54:55;102914.34;;;0.93;100.00
8585;BME280;7180;52.742;11.420;2023-02-10T06:57:20;102918.72;;;0.95;100.00
8585;BME280;7180;52.742;11.420;2023-02-10T06:59:46;102921.06;;;0.83;100.00
8585;BME280;7180;52.742;11.420;2023-02-10T07:02:11;102930.69;;;0.90;100.00
8585;BME280;7180;52.742;11.420;2023-02-10T07:04:37;102940.25;;;0.94;100.00
8585;BME280;7180;52.742;11.420;2023-02-10T07:07:02;102936.25;;;1.12;100.00
8585;BME280;7180;52.742;11.420;2023-02-10T07:09:28;102933.72;;;1.15;100.00
8585;BME280;7180;52.742;11.420;2023-02-10T07:11:53;102941.81;;;1.33;100.00
8585;BME280;7180;52.742;11.420;2023-02-10T07:14:19;102942.84;;;1.42;100.00
8585;BME280;7180;52.742;11.420;2023-02-10T07:16:44;102948.25;;;1.57;100.00
8585;BME280;7180;52.742;11.420;2023-02-10T07:19:10;102959.63;;;1.67;100.00
8585;BME280;7180;52.742;11.420;2023-02-10T07:21:35;102945.16;;;1.82;100.00
8585;BME280;7180;52.742;11.420;2023-02-10T07:24:02;102943.53;;;1.86;100.00
8585;BME280;7180;52.742;11.420;2023-02-10T07:26:27;102944.50;;;1.97;100.00
8585;BME280;7180;52.742;11.420;2023-02-10T07:28:53;102952.50;;;2.09;100.00
8585;BME280;7180;52.742;11.420;2023-02-10T07:31:18;102949.03;;;2.11;100.00
8585;BME280;7180;52.742;11.420;2023-02-10T07:33:43;102961.41;;;2.29;100.00
8585;BME280;7180;52.742;11.420;2023-02-10T07:36:09;102957.06;;;2.28;100.00
8585;BME280;7180;52.742;11.420;2023-02-10T07:38:34;102954.69;;;2.48;100.00
8585;BME280;7180;52.742;11.420;2023-02-10T07:41:01;102957.41;;;2.55;100.00
8585;BME280;7180;52.742;11.420;2023-02-10T07:43:26;102950.38;;;2.48;100.00
8585;BME280;7180;52.742;11.420;2023-02-10T07:45:51;102936.38;;;2.36;100.00
8585;BME280;7180;52.742;11.420;2023-02-10T07:48:17;102935.69;;;2.47;100.00
8585;BME280;7180;52.742;11.420;2023-02-10T07:50:43;102919.16;;;2.42;100.00
8585;BME280;7180;52.742;11.420;2023-02-10T07:53:09;102919.25;;;2.51;100.00
8585;BME280;7180;52.742;11.420;2023-02-10T07:55:36;102924.53;;;2.60;100.00
8585;BME280;7180;52.742;11.420;2023-02-10T07:58:02;102919.34;;;2.60;100.00
8585;BME280;7180;52.742;11.420;2023-02-10T08:00:28;102919.50;;;2.72;100.00
8585;BME280;7180;52.742;11.420;2023-02-10T08:02:53;102907.44;;;2.80;100.00
8585;BME280;7180;52.742;11.420;2023-02-10T08:05:18;102897.94;;;2.81;100.00
8585;BME280;7180;52.742;11.420;2023-02-10T08:07:43;102898.09;;;2.96;100.00
8585;BME280;7180;52.742;11.420;2023-02-10T08:10:09;102881.69;;;3.04;100.00
8585;BME280;7180;52.742;11.420;2023-02-10T08:12:34;102873.09;;;3.14;100.00
8585;BME280;7180;52.742;11.420;2023-02-10T08:15:00;102846.22;;;3.12;100.00
8585;BME280;7180;52.742;11.420;2023-02-10T08:17:25;102825.44;;;3.11;100.00
8585;BME280;7180;52.742;11.420;2023-02-10T08:19:50;102828.09;;;3.22;100.00
8585;BME280;7180;52.742;11.420;2023-02-10T08:22:15;102795.94;;;3.10;100.00
8585;BME280;7180;52.742;11.420;2023-02-10T08:24:41;102792.56;;;3.19;100.00
8585;BME280;7180;52.742;11.420;2023-02-10T08:27:07;102780.41;;;3.13;100.00
8585;BME280;7180;52.742;11.420;2023-02-10T08:29:32;102778.75;;;3.31;100.00
8585;BME280;7180;52.742;11.420;2023-02-10T08:31:57;102764.88;;;3.29;100.00
8585;BME280;7180;52.742;11.420;2023-02-10T08:34:23;102744.13;;;3.35;100.00
8585;BME280;7180;52.742;11.420;2023-02-10T08:36:48;102731.94;;;3.29;100.00
8585;BME280;7180;52.742;11.420;2023-02-10T08:39:14;102727.63;;;3.27;100.00
8585;BME280;7180;52.742;11.420;2023-02-10T08:41:40;102722.47;;;3.39;100.00
8585;BME280;7180;52.742;11.420;2023-02-10T08:44:06;102712.09;;;3.45;100.00
8585;BME280;7180;52.742;11.420;2023-02-10T08:46:32;102699.09;;;3.48;100.00
8585;BME280;7180;52.742;11.420;2023-02-10T08:48:58;102675.66;;;3.40;100.00
8585;BME280;7180;52.742;11.420;2023-02-10T08:51:26;102659.19;;;3.35;100.00
8585;BME280;7180;52.742;11.420;2023-02-10T08:53:51;102667.03;;;3.49;100.00
8585;BME280;7180;52.742;11.420;2023-02-10T08:56:17;102671.38;;;3.56;100.00
8585;BME280;7180;52.742;11.420;2023-02-10T08:58:43;102654.91;;;3.51;100.00
8585;BME280;7180;52.742;11.420;2023-02-10T09:01:14;102653.16;;;3.50;100.00
8585;BME280;7180;52.742;11.420;2023-02-10T09:03:40;102667.09;;;3.70;100.00
8585;BME280;7180;52.742;11.420;2023-02-10T09:06:12;102649.75;;;3.66;100.00
8585;BME280;7180;52.742;11.420;2023-02-10T09:08:38;102648.88;;;3.68;100.00
8585;BME280;7180;52.742;11.420;2023-02-10T09:11:05;102646.31;;;3.85;100.00
8585;BME280;7180;52.742;11.420;2023-02-10T09:13:30;102633.28;;;3.86;100.00
8585;BME280;7180;52.742;11.420;2023-02-10T09:15:56;102612.50;;;3.89;100.00
8585;BME280;7180;52.742;11.420;2023-02-10T09:18:21;102597.72;;;3.96;100.00
8585;BME280;7180;52.742;11.420;2023-02-10T09:20:46;102617.69;;;4.22;100.00
8585;BME280;7180;52.742;11.420;2023-02-10T09:23:11;102573.44;;;4.13;100.00
8585;BME280;7180;52.742;11.420;2023-02-10T09:25:37;102581.22;;;4.32;100.00
8585;BME280;7180;52.742;11.420;2023-02-10T09:28:02;102562.13;;;4.43;100.00
8585;BME280;7180;52.742;11.420;2023-02-10T09:30:27;102542.13;;;4.54;100.00
8585;BME280;7180;52.742;11.420;2023-02-10T09:32:53;102502.16;;;4.55;100.00
8585;BME280;7180;52.742;11.420;2023-02-10T09:35:19;102492.53;;;4.68;100.00
8585;BME280;7180;52.742;11.420;2023-02-10T09:37:45;102446.50;;;4.76;100.00
8585;BME280;7180;52.742;11.420;2023-02-10T09:40:17;102427.44;;;4.69;100.00
8585;BME280;7180;52.742;11.420;2023-02-10T09:45:36;102387.47;;;4.67;99.43
8585;BME280;7180;52.742;11.420;2023-02-10T09:48:14;102396.97;;;4.76;99.53
8585;BME280;7180;52.742;11.420;2023-02-10T09:50:55;102434.16;;;5.03;99.02
8585;BME280;7180;52.742;11.420;2023-02-10T09:53:26;102349.06;;;4.93;98.31
8585;BME280;7180;52.742;11.420;2023-02-10T09:55:58;102322.13;;;4.91;97.36
8585;BME280;7180;52.742;11.420;2023-02-10T09:58:46;102304.88;;;4.80;97.34
8585;BME280;7180;52.742;11.420;2023-02-10T10:03:52;102326.50;;;4.89;96.99
8585;BME280;7180;52.742;11.420;2023-02-10T10:06:40;102298.81;;;4.78;97.08
8585;BME280;7180;52.742;11.420;2023-02-10T10:11:40;102337.84;;;4.82;97.40
8585;BME280;7180;52.742;11.420;2023-02-10T10:14:18;102359.47;;;4.96;97.28
8585;BME280;7180;52.742;11.420;2023-02-10T10:22:13;102357.00;;;4.80;96.83
8585;BME280;7180;52.742;11.420;2023-02-10T10:25:10;102358.69;;;4.85;97.11
8585;BME280;7180;52.742;11.420;2023-02-10T10:33:35;102371.44;;;5.18;96.61
8585;BME280;7180;52.742;11.420;2023-02-10T10:36:02;102353.19;;;5.18;96.92
8585;BME280;7180;52.742;11.420;2023-02-10T10:38:40;102361.00;;;5.21;97.01
8585;BME280;7180;52.742;11.420;2023-02-10T10:41:12;102356.63;;;5.26;96.48
8585;BME280;7180;52.742;11.420;2023-02-10T10:43:44;102346.97;;;5.33;96.72
8585;BME280;7180;52.742;11.420;2023-02-10T10:46:40;102353.81;;;5.48;96.46
8585;BME280;7180;52.742;11.420;2023-02-10T10:49:08;102297.38;;;5.39;95.76
8585;BME280;7180;52.742;11.420;2023-02-10T10:51:33;102300.66;;;5.56;95.52
8585;BME280;7180;52.742;11.420;2023-02-10T10:53:59;102293.66;;;5.63;95.62
8585;BME280;7180;52.742;11.420;2023-02-10T10:56:43;102274.38;;;5.73;95.52
8585;BME280;7180;52.742;11.420;2023-02-10T10:59:21;102233.63;;;5.60;95.09
8585;BME280;7180;52.742;11.420;2023-02-10T11:01:50;102281.94;;;5.97;95.25
8585;BME280;7180;52.742;11.420;2023-02-10T11:04:23;102183.69;;;5.91;94.30
8585;BME280;7180;52.742;11.420;2023-02-10T11:07:09;102159.25;;;5.95;94.22
8585;BME280;7180;52.742;11.420;2023-02-10T11:09:41;102123.59;;;5.93;93.51
8585;BME280;7180;52.742;11.420;2023-02-10T11:12:27;102130.00;;;6.27;93.55
8585;BME280;7180;52.742;11.420;2023-02-10T11:14:54;102010.31;;;6.03;92.45
8585;BME280;7180;52.742;11.420;2023-02-10T11:17:28;102015.63;;;5.97;92.81
8585;BME280;7180;52.742;11.420;2023-02-10T11:22:23;102034.69;;;6.02;92.74
8585;BME280;7180;52.742;11.420;2023-02-10T11:24:54;102034.84;;;5.93;92.22
8585;BME280;7180;52.742;11.420;2023-02-10T11:27:20;102019.44;;;5.75;92.51
8585;BME280;7180;52.742;11.420;2023-02-10T11:29:52;102070.66;;;5.83;92.50
8585;BME280;7180;52.742;11.420;2023-02-10T11:32:23;102035.34;;;5.58;92.94
8585;BME280;7180;52.742;11.420;2023-02-10T11:34:51;102081.44;;;5.61;92.69
8585;BME280;7180;52.742;11.420;2023-02-10T11:37:29;102098.06;;;5.54;93.21
8585;BME280;7180;52.742;11.420;2023-02-10T11:39:57;102117.25;;;5.48;93.14
8585;BME280;7180;52.742;11.420;2023-02-10T11:42:26;102148.53;;;5.50;93.82
8585;BME280;7180;52.742;11.420;2023-02-10T11:44:58;102151.28;;;5.41;94.15
8585;BME280;7180;52.742;11.420;2023-02-10T11:47:26;102197.34;;;5.42;93.96
8585;BME280;7180;52.742;11.420;2023-02-10T11:49:51;102233.78;;;5.48;94.34
8585;BME280;7180;52.742;11.420;2023-02-10T11:52:18;102245.84;;;5.59;94.42
8585;BME280;7180;52.742;11.420;2023-02-10T11:54:46;102231.06;;;5.58;94.46
8585;BME280;7180;52.742;11.420;2023-02-10T11:57:42;102202.31;;;5.60;94.15
8585;BME280;7180;52.742;11.420;2023-02-10T12:00:33;102210.97;;;5.65;94.04
8585;BME280;7180;52.742;11.420;2023-02-10T12:03:27;102203.94;;;5.70;94.30
8585;BME280;7180;52.742;11.420;2023-02-10T12:06:05;102209.97;;;5.75;94.46
8585;BME280;7180;52.742;11.420;2023-02-10T12:11:46;102148.19;;;5.77;94.02
8585;BME280;7180;52.742;11.420;2023-02-10T12:17:03;102134.22;;;5.78;93.55
8585;BME280;7180;52.742;11.420;2023-02-10T12:23:00;102081.91;;;5.87;92.80
8585;BME280;7180;52.742;11.420;2023-02-10T12:25:52;102020.19;;;5.81;92.85
8585;BME280;7180;52.742;11.420;2023-02-10T12:31:23;102034.78;;;5.96;92.12
8585;BME280;7180;52.742;11.420;2023-02-10T12:34:15;101979.25;;;5.88;91.84
8585;BME280;7180;52.742;11.420;2023-02-10T12:42:57;101942.47;;;6.00;91.49
8585;BME280;7180;52.742;11.420;2023-02-10T12:45:36;101925.03;;;6.02;91.25
8585;BME280;7180;52.742;11.420;2023-02-10T12:48:31;101914.69;;;5.96;91.43
8585;BME280;7180;52.742;11.420;2023-02-10T12:54:25;101911.69;;;6.17;90.82
8585;BME280;7180;52.742;11.420;2023-02-10T12:56:56;101841.19;;;6.17;90.27
8585;BME280;7180;52.742;11.420;2023-02-10T12:59:27;101815.06;;;6.17;90.18
8585;BME280;7180;52.742;11.420;2023-02-10T13:01:58;101775.88;;;6.17;90.03
8585;BME280;7180;52.742;11.420;2023-02-10T13:04:44;101764.72;;;6.09;89.64
8585;BME280;7180;52.742;11.420;2023-02-10T13:07:16;101796.91;;;6.11;89.92
8585;BME280;7180;52.742;11.420;2023-02-10T13:09:48;101781.28;;;6.09;89.82
8585;BME280;7180;52.742;11.420;2023-02-10T13:12:24;101814.41;;;6.06;90.05
8585;BME280;7180;52.742;11.420;2023-02-10T13:15:02;101812.88;;;5.96;90.24
8585;BME280;7180;52.742;11.420;2023-02-10T13:17:38;101844.25;;;5.93;90.30
8585;BME280;7180;52.742;11.420;2023-02-10T13:23:09;101822.00;;;5.72;90.82
8585;BME280;7180;52.742;11.420;2023-02-10T13:25:49;101877.56;;;5.79;90.94
8585;BME280;7180;52.742;11.420;2023-02-10T13:31:09;101916.34;;;6.00;91.13
8585;BME280;7180;52.742;11.420;2023-02-10T13:33:59;101859.59;;;6.09;90.39
8585;BME280;7180;52.742;11.420;2023-02-10T13:36:27;101819.44;;;6.15;90.39
8585;BME280;7180;52.742;11.420;2023-02-10T13:39:05;101766.59;;;6.04;90.23
8585;BME280;7180;52.742;11.420;2023-02-10T13:41:39;101765.53;;;6.12;89.86
8585;BME280;7180;52.742;11.420;2023-02-10T13:44:19;101710.88;;;6.03;89.79
8585;BME280;7180;52.742;11.420;2023-02-10T13:46:53;101722.28;;;5.99;89.70
8585;BME280;7180;52.742;11.420;2023-02-10T13:49:20;101739.03;;;5.91;89.99
8585;BME280;7180;52.742;11.420;2023-02-10T13:51:46;101791.84;;;6.03;90.14
8585;BME280;7180;52.742;11.420;2023-02-10T13:54:30;101780.56;;;6.03;90.18
8585;BME280;7180;52.742;11.420;2023-02-10T13:56:56;101853.31;;;6.18;90.75
8585;BME280;7180;52.742;11.420;2023-02-10T13:59:26;101827.97;;;6.23;90.55
8585;BME280;7180;52.742;11.420;2023-02-10T14:06:50;101789.13;;;6.08;90.60
8585;BME280;7180;52.742;11.420;2023-02-10T14:11:54;101764.81;;;6.06;90.41
8585;BME280;7180;52.742;11.420;2023-02-10T14:14:26;101771.09;;;5.97;90.54
8585;BME280;7180;52.742;11.420;2023-02-10T14:17:02;101822.50;;;5.94;90.77
8585;BME280;7180;52.742;11.420;2023-02-10T14:19:34;101839.88;;;5.95;90.66
8585;BME280;7180;52.742;11.420;2023-02-10T14:22:00;101831.41;;;5.84;90.87
8585;BME280;7180;52.742;11.420;2023-02-10T14:24:29;101843.56;;;5.82;91.11
8585;BME280;7180;52.742;11.420;2023-02-10T14:27:01;101839.16;;;5.87;91.00